createdAt,value
2022-07-26T00:00:10.722Z,2.38
2022-07-26T00:02:39.487Z,1.88
2022-07-26T00:05:16.832Z,2.55
2022-07-26T00:07:47.839Z,2.10
2022-07-26T00:10:16.256Z,1.95
2022-07-26T00:12:44.159Z,1.70
2022-07-26T00:15:13.231Z,1.75
2022-07-26T00:17:41.097Z,2.35
2022-07-26T00:22:36.931Z,1.48
2022-07-26T00:25:10.193Z,2.08
2022-07-26T00:27:39.064Z,1.52
2022-07-26T00:30:12.031Z,1.90
2022-07-26T00:32:40.171Z,1.70
2022-07-26T00:35:09.533Z,1.65
2022-07-26T00:37:38.053Z,2.20
2022-07-26T00:40:06.888Z,1.73
2022-07-26T00:42:37.296Z,1.95
2022-07-26T00:45:07.039Z,2.00
2022-07-26T00:47:36.164Z,1.60
2022-07-26T00:50:06.978Z,2.22
2022-07-26T00:52:34.546Z,1.60
2022-07-26T00:55:02.240Z,2.05
2022-07-26T00:57:29.890Z,2.05
2022-07-26T01:00:01.710Z,1.88
2022-07-26T01:02:28.943Z,2.00
2022-07-26T01:04:56.275Z,1.58
2022-07-26T01:07:24.108Z,1.65
2022-07-26T01:09:51.368Z,1.45
2022-07-26T01:12:18.591Z,1.65
2022-07-26T01:14:46.587Z,2.47
2022-07-26T01:17:15.519Z,1.33
2022-07-26T01:19:43.186Z,1.70
2022-07-26T01:24:42.666Z,1.83
2022-07-26T01:27:10.186Z,2.00
2022-07-26T01:29:40.636Z,2.42
2022-07-26T01:32:08.885Z,1.80
2022-07-26T01:34:36.352Z,2.13
2022-07-26T01:37:04.174Z,1.77
2022-07-26T01:41:59.638Z,1.58
2022-07-26T01:44:26.990Z,1.88
2022-07-26T01:46:54.240Z,1.73
2022-07-26T01:49:21.596Z,2.17
2022-07-26T01:51:48.976Z,2.00
2022-07-26T01:54:16.400Z,1.90
2022-07-26T01:56:51.741Z,1.73
2022-07-26T01:59:19.179Z,1.73
2022-07-26T02:01:46.281Z,2.20
2022-07-26T02:04:33.526Z,1.60
2022-07-26T02:07:00.857Z,1.60
2022-07-26T02:09:39.535Z,1.88
2022-07-26T02:12:07.431Z,2.20
2022-07-26T02:14:34.512Z,1.77
2022-07-26T02:17:01.805Z,1.77
2022-07-26T02:19:30.137Z,2.03
2022-07-26T02:21:57.793Z,2.08
2022-07-26T02:24:27.536Z,1.75
2022-07-26T02:26:56.315Z,2.03
2022-07-26T02:29:24.770Z,2.10
2022-07-26T02:32:00.165Z,1.63
2022-07-26T02:34:29.905Z,1.60
2022-07-26T02:36:59.974Z,1.83
2022-07-26T02:42:00.383Z,1.45
2022-07-26T02:44:28.860Z,1.38
2022-07-26T02:46:56.062Z,2.08
2022-07-26T02:49:23.880Z,1.80
2022-07-26T02:51:52.522Z,1.80
2022-07-26T02:54:19.891Z,1.92
2022-07-26T02:56:47.045Z,1.38
2022-07-26T02:59:14.117Z,2.50
2022-07-26T03:01:41.158Z,2.42
2022-07-26T03:04:08.815Z,2.08
2022-07-26T03:09:03.683Z,1.27
2022-07-26T03:11:45.847Z,1.77
2022-07-26T03:14:12.983Z,1.98
2022-07-26T03:16:45.500Z,2.35
2022-07-26T03:19:12.515Z,1.90
2022-07-26T03:21:39.751Z,2.03
2022-07-26T03:24:07.535Z,1.63
2022-07-26T03:26:34.808Z,1.85
2022-07-26T03:29:01.917Z,1.85
2022-07-26T03:31:29.055Z,1.70
2022-07-26T03:34:04.061Z,1.27
2022-07-26T03:36:31.341Z,2.10
2022-07-26T03:38:58.536Z,2.03
2022-07-26T03:41:25.584Z,1.40
2022-07-26T03:43:52.671Z,2.47
2022-07-26T03:46:19.847Z,1.58
2022-07-26T03:48:46.901Z,1.73
2022-07-26T03:51:14.131Z,1.42
2022-07-26T03:53:41.241Z,2.25
2022-07-26T03:56:26.822Z,1.70
2022-07-26T03:58:53.983Z,2.30
2022-07-26T04:01:21.704Z,2.15
2022-07-26T04:06:16.600Z,1.55
2022-07-26T04:08:44.689Z,1.92
2022-07-26T04:11:11.818Z,2.10
2022-07-26T04:13:38.963Z,2.15
2022-07-26T04:16:06.597Z,2.00
2022-07-26T04:18:33.851Z,2.30
2022-07-26T04:21:00.990Z,1.95
2022-07-26T04:23:28.311Z,1.88
2022-07-26T04:25:55.760Z,2.05
2022-07-26T04:28:22.970Z,2.10
2022-07-26T04:30:50.439Z,2.38
2022-07-26T04:33:17.492Z,2.30
2022-07-26T04:35:44.602Z,2.05
2022-07-26T04:38:11.792Z,2.03
2022-07-26T04:40:40.383Z,2.50
2022-07-26T04:43:10.093Z,1.45
2022-07-26T04:45:42.565Z,1.58
2022-07-26T04:48:09.861Z,2.05
2022-07-26T04:50:37.073Z,2.30
2022-07-26T04:53:04.577Z,3.00
2022-07-26T04:55:32.054Z,1.77
2022-07-26T04:57:59.831Z,2.65
2022-07-26T05:00:26.951Z,1.70
2022-07-26T05:02:59.884Z,2.05
2022-07-26T05:05:29.654Z,1.83
2022-07-26T05:07:59.397Z,2.20
2022-07-26T05:10:33.692Z,2.03
2022-07-26T05:13:01.186Z,2.05
2022-07-26T05:18:13.614Z,1.90
2022-07-26T05:20:41.317Z,2.25
2022-07-26T05:25:37.253Z,2.60
2022-07-26T05:28:04.701Z,2.17
2022-07-26T05:33:01.610Z,2.08
2022-07-26T05:35:28.664Z,1.90
2022-07-26T05:37:55.913Z,2.50
2022-07-26T05:40:25.126Z,2.45
2022-07-26T05:42:52.159Z,2.83
2022-07-26T05:45:19.406Z,2.28
2022-07-26T05:47:49.499Z,2.40
2022-07-26T05:50:16.665Z,2.53
2022-07-26T05:52:44.129Z,2.83
2022-07-26T05:55:11.094Z,2.38
2022-07-26T05:57:41.879Z,2.40
2022-07-26T06:00:12.250Z,2.63
2022-07-26T06:02:39.679Z,2.75
2022-07-26T06:05:07.831Z,2.85
2022-07-26T06:07:34.930Z,2.67
2022-07-26T06:10:01.913Z,2.22
2022-07-26T06:12:28.943Z,2.55
2022-07-26T06:14:56.476Z,2.20
2022-07-26T06:17:23.580Z,2.55
2022-07-26T06:19:50.813Z,2.83
2022-07-26T06:22:17.842Z,2.85
2022-07-26T06:24:44.925Z,2.50
2022-07-26T06:27:12.441Z,2.97
2022-07-26T06:29:40.730Z,2.50
2022-07-26T06:32:07.872Z,3.10
2022-07-26T06:37:02.208Z,2.30
2022-07-26T06:39:29.388Z,2.50
2022-07-26T06:41:56.443Z,2.30
2022-07-26T06:46:50.582Z,2.58
2022-07-26T06:51:49.862Z,2.42
2022-07-26T06:54:17.122Z,2.42
2022-07-26T06:59:11.162Z,2.30
2022-07-26T07:04:25.128Z,2.38
2022-07-26T07:06:52.339Z,2.80
2022-07-26T07:09:19.886Z,2.70
2022-07-26T07:11:51.856Z,2.85
2022-07-26T07:14:28.591Z,2.40
2022-07-26T07:16:57.083Z,4.00
2022-07-26T07:19:24.585Z,2.78
2022-07-26T07:21:52.466Z,2.78
2022-07-26T07:24:23.679Z,2.55
2022-07-26T07:26:51.139Z,2.25
2022-07-26T07:29:21.075Z,2.45
2022-07-26T07:31:49.750Z,2.13
2022-07-26T07:34:23.979Z,2.70
2022-07-26T07:36:51.740Z,2.83
2022-07-26T07:39:27.313Z,2.40
2022-07-26T07:42:01.841Z,2.33
2022-07-26T07:46:56.025Z,2.13
2022-07-26T07:49:23.603Z,2.40
2022-07-26T07:51:50.740Z,2.38
2022-07-26T07:56:45.616Z,2.75
2022-07-26T07:59:13.081Z,2.40
2022-07-26T08:01:41.167Z,2.10
2022-07-26T08:04:09.607Z,2.78
2022-07-26T08:06:37.205Z,2.72
2022-07-26T08:09:06.422Z,2.20
2022-07-26T08:11:34.292Z,2.50
2022-07-26T08:14:02.321Z,2.15
2022-07-26T08:16:29.598Z,2.25
2022-07-26T08:18:57.346Z,2.55
2022-07-26T08:21:28.109Z,2.33
2022-07-26T08:23:57.110Z,2.70
2022-07-26T08:26:24.736Z,2.35
2022-07-26T08:29:09.821Z,2.58
2022-07-26T08:31:37.249Z,2.33
2022-07-26T08:34:04.556Z,2.10
2022-07-26T08:36:32.972Z,2.53
2022-07-26T08:39:01.600Z,2.28
2022-07-26T08:41:29.619Z,1.80
2022-07-26T08:44:05.514Z,1.88
2022-07-26T08:46:36.263Z,1.58
2022-07-26T08:49:03.846Z,1.88
2022-07-26T08:51:31.810Z,1.83
2022-07-26T08:54:06.121Z,1.83
2022-07-26T08:56:41.080Z,2.28
2022-07-26T08:59:21.224Z,2.00
2022-07-26T09:02:06.927Z,2.47
2022-07-26T09:04:43.581Z,2.42
2022-07-26T09:07:16.759Z,2.08
2022-07-26T09:10:00.119Z,2.25
2022-07-26T09:12:29.925Z,1.90
2022-07-26T09:15:00.320Z,2.25
2022-07-26T09:17:39.887Z,1.95
2022-07-26T09:20:15.983Z,2.30
2022-07-26T09:23:05.375Z,2.30
2022-07-26T09:25:41.295Z,1.95
2022-07-26T09:28:23.226Z,2.17
2022-07-26T09:31:06.491Z,2.60
2022-07-26T09:33:47.610Z,2.28
2022-07-26T09:36:16.310Z,2.10
2022-07-26T09:38:44.665Z,2.05
2022-07-26T09:41:27.365Z,1.98
2022-07-26T09:43:56.717Z,1.83
2022-07-26T09:46:26.445Z,1.98
2022-07-26T09:49:11.938Z,1.90
2022-07-26T09:51:49.122Z,2.28
2022-07-26T09:54:29.244Z,1.92
2022-07-26T09:56:56.936Z,2.35
2022-07-26T09:59:25.555Z,2.42
2022-07-26T10:01:55.129Z,1.80
2022-07-26T10:04:22.981Z,2.38
2022-07-26T10:06:53.309Z,1.95
2022-07-26T10:09:23.153Z,1.90
2022-07-26T10:12:00.900Z,2.50
2022-07-26T10:14:38.321Z,2.22
2022-07-26T10:17:29.210Z,2.20
2022-07-26T10:20:10.715Z,1.95
2022-07-26T10:22:47.231Z,2.10
2022-07-26T10:25:20.464Z,2.40
2022-07-26T10:28:00.820Z,2.50
2022-07-26T10:30:34.916Z,2.50
2022-07-26T10:33:16.157Z,2.80
2022-07-26T10:35:43.815Z,3.42
2022-07-26T10:38:24.749Z,3.05
2022-07-26T10:40:59.015Z,3.13
2022-07-26T10:43:43.979Z,2.92
2022-07-26T10:46:17.227Z,2.85
2022-07-26T10:49:06.680Z,2.70
2022-07-26T10:51:41.707Z,3.00
2022-07-26T10:54:12.414Z,2.78
2022-07-26T10:56:43.158Z,2.70
2022-07-26T10:59:10.438Z,3.10
2022-07-26T11:01:40.201Z,2.72
2022-07-26T11:04:21.854Z,2.45
2022-07-26T11:06:49.281Z,2.53
2022-07-26T11:09:19.041Z,3.05
2022-07-26T11:11:48.973Z,2.90
2022-07-26T11:14:18.221Z,2.97
2022-07-26T11:16:50.700Z,3.00
2022-07-26T11:19:26.245Z,2.83
2022-07-26T11:22:01.128Z,2.90
2022-07-26T11:24:29.464Z,2.40
2022-07-26T11:27:02.562Z,2.65
2022-07-26T11:29:39.000Z,2.53
2022-07-26T11:32:22.467Z,2.85
2022-07-26T11:35:00.786Z,3.05
2022-07-26T11:37:28.146Z,3.15
2022-07-26T11:39:56.029Z,2.53
2022-07-26T11:42:23.239Z,2.45
2022-07-26T11:44:51.104Z,2.80
2022-07-26T11:47:20.526Z,2.80
2022-07-26T11:50:00.865Z,2.67
2022-07-26T11:52:36.483Z,2.95
2022-07-26T11:55:03.694Z,2.40
2022-07-26T11:57:32.387Z,2.92
2022-07-26T12:00:00.902Z,3.05
2022-07-26T12:02:30.761Z,2.40
2022-07-26T12:05:19.886Z,2.70
2022-07-26T12:07:57.335Z,2.78
2022-07-26T12:10:25.224Z,2.42
2022-07-26T12:13:07.766Z,3.05
2022-07-26T12:15:51.296Z,2.28
2022-07-26T12:18:27.341Z,2.60
2022-07-26T12:21:04.131Z,2.35
2022-07-26T12:23:46.553Z,2.30
2022-07-26T12:26:23.858Z,2.70
2022-07-26T12:28:57.052Z,2.90
2022-07-26T12:31:29.510Z,2.50
2022-07-26T12:33:57.051Z,2.90
2022-07-26T12:36:27.396Z,2.58
2022-07-26T12:39:00.965Z,2.65
2022-07-26T12:41:40.204Z,2.35
2022-07-26T12:44:12.161Z,2.72
2022-07-26T12:46:39.966Z,2.60
2022-07-26T12:49:07.389Z,2.65
2022-07-26T12:51:35.010Z,2.40
2022-07-26T12:54:06.726Z,2.95
2022-07-26T12:56:34.209Z,2.50
2022-07-26T12:59:01.832Z,3.10
2022-07-26T13:01:30.716Z,2.65
2022-07-26T13:03:58.453Z,2.88
2022-07-26T13:06:26.041Z,2.72
2022-07-26T13:08:53.869Z,2.53
2022-07-26T13:11:21.197Z,3.20
2022-07-26T13:13:49.832Z,2.78
2022-07-26T13:16:17.254Z,3.17
2022-07-26T13:18:44.324Z,3.10
2022-07-26T13:21:11.859Z,2.78
2022-07-26T13:23:39.212Z,2.83
2022-07-26T13:26:09.084Z,2.90
2022-07-26T13:28:36.936Z,3.30
2022-07-26T13:31:04.435Z,3.55
2022-07-26T13:33:33.119Z,3.42
2022-07-26T13:36:00.503Z,3.13
2022-07-26T13:38:28.620Z,3.45
2022-07-26T13:40:56.812Z,2.88
2022-07-26T13:43:24.528Z,3.03
2022-07-26T13:45:51.914Z,3.00
2022-07-26T13:48:18.891Z,2.78
2022-07-26T13:50:46.530Z,2.78
2022-07-26T13:53:14.025Z,3.10
2022-07-26T13:55:41.596Z,2.97
2022-07-26T13:58:11.826Z,3.45
2022-07-26T14:00:40.615Z,2.70
2022-07-26T14:03:08.145Z,3.20
2022-07-26T14:05:35.667Z,2.70
2022-07-26T14:08:02.727Z,2.90
2022-07-26T14:10:30.062Z,3.03
2022-07-26T14:12:57.216Z,2.72
2022-07-26T14:15:24.658Z,3.20
2022-07-26T14:17:52.924Z,2.53
2022-07-26T14:20:21.273Z,3.17
2022-07-26T14:22:48.767Z,3.47
2022-07-26T14:25:15.870Z,3.30
2022-07-26T14:27:42.987Z,3.13
2022-07-26T14:30:10.867Z,3.25
2022-07-26T14:32:38.270Z,3.05
2022-07-26T14:35:09.003Z,2.85
2022-07-26T14:37:43.977Z,2.70
2022-07-26T14:40:14.930Z,2.80
2022-07-26T14:42:42.131Z,3.30
2022-07-26T14:45:10.276Z,3.10
2022-07-26T14:47:38.281Z,3.03
2022-07-26T14:50:08.057Z,2.80
2022-07-26T14:52:44.366Z,3.10
2022-07-26T14:55:12.253Z,2.75
2022-07-26T14:57:40.373Z,2.72
2022-07-26T15:00:12.963Z,3.33
2022-07-26T15:02:45.895Z,3.22
2022-07-26T15:05:14.866Z,3.20
2022-07-26T15:07:42.879Z,2.90
2022-07-26T15:10:12.486Z,3.17
2022-07-26T15:12:40.002Z,3.50
2022-07-26T15:15:08.881Z,3.67
2022-07-26T15:17:36.263Z,3.33
2022-07-26T15:20:04.266Z,3.25
2022-07-26T15:22:31.446Z,2.85
2022-07-26T15:24:58.665Z,3.00
2022-07-26T15:27:25.748Z,3.20
2022-07-26T15:29:52.840Z,2.80
2022-07-26T15:32:21.598Z,2.92
2022-07-26T15:34:49.061Z,3.20
2022-07-26T15:37:16.319Z,2.63
2022-07-26T15:39:43.433Z,2.97
2022-07-26T15:42:10.708Z,2.97
2022-07-26T15:44:44.693Z,3.67
2022-07-26T15:47:15.537Z,4.72
2022-07-26T15:49:59.985Z,3.40
2022-07-26T15:52:27.131Z,3.47
2022-07-26T15:54:54.517Z,3.03
2022-07-26T15:57:21.635Z,3.28
2022-07-26T15:59:49.014Z,2.67
2022-07-26T16:02:16.228Z,3.10
2022-07-26T16:04:43.367Z,3.22
2022-07-26T16:07:10.365Z,2.97
2022-07-26T16:09:37.512Z,3.00
2022-07-26T16:12:06.243Z,3.13
2022-07-26T16:14:33.485Z,2.60
2022-07-26T16:17:02.195Z,2.90
2022-07-26T16:19:29.573Z,2.90
2022-07-26T16:21:57.035Z,3.08
2022-07-26T16:24:25.787Z,3.20
2022-07-26T16:26:53.420Z,2.78
2022-07-26T16:29:20.806Z,3.00
2022-07-26T16:31:48.350Z,2.90
2022-07-26T16:34:15.813Z,2.70
2022-07-26T16:36:42.945Z,3.03
2022-07-26T16:39:10.422Z,3.10
2022-07-26T16:41:38.169Z,3.00
2022-07-26T16:44:05.906Z,2.78
2022-07-26T16:46:32.915Z,2.75
2022-07-26T16:51:27.621Z,2.97
2022-07-26T16:53:55.632Z,2.67
2022-07-26T16:56:28.837Z,2.83
2022-07-26T16:58:56.219Z,2.83
2022-07-26T17:01:23.980Z,2.67
2022-07-26T17:03:51.129Z,2.35
2022-07-26T17:11:33.563Z,2.53
2022-07-26T17:14:13.851Z,2.88
2022-07-26T17:16:44.443Z,2.97
2022-07-26T17:19:24.358Z,2.63
2022-07-26T17:21:56.031Z,2.60
2022-07-26T17:24:23.439Z,2.90
2022-07-26T17:26:50.588Z,2.42
2022-07-26T17:34:11.570Z,2.78
2022-07-26T17:36:43.095Z,2.20
2022-07-26T17:39:23.329Z,2.50
2022-07-26T17:42:20.684Z,2.95
2022-07-26T17:44:49.837Z,2.47
2022-07-26T17:47:29.371Z,3.08
2022-07-26T17:52:57.678Z,2.80
2022-07-26T17:55:25.143Z,2.47
2022-07-26T17:57:54.843Z,2.65
2022-07-26T18:00:27.011Z,3.03
2022-07-26T18:03:00.357Z,2.65
2022-07-26T18:05:34.980Z,2.38
2022-07-26T18:08:04.655Z,2.45
2022-07-26T18:12:58.936Z,2.85
2022-07-26T18:15:28.392Z,2.70
2022-07-26T18:17:56.192Z,2.15
2022-07-26T18:20:24.209Z,3.15
2022-07-26T18:22:54.343Z,2.78
2022-07-26T18:25:22.348Z,3.13
2022-07-26T18:27:50.347Z,2.70
2022-07-26T18:30:24.914Z,2.45
2022-07-26T18:32:54.633Z,2.40
2022-07-26T18:35:22.511Z,2.63
2022-07-26T18:37:50.885Z,2.10
2022-07-26T18:40:18.397Z,2.53
2022-07-26T18:42:46.445Z,2.55
2022-07-26T18:45:15.504Z,2.05
2022-07-26T18:47:43.280Z,3.22
2022-07-26T18:50:16.986Z,2.50
2022-07-26T18:52:52.524Z,2.42
2022-07-26T18:55:21.179Z,2.95
2022-07-26T18:57:48.841Z,2.35
2022-07-26T19:00:24.176Z,2.88
2022-07-26T19:02:53.466Z,2.28
2022-07-26T19:05:23.035Z,2.63
2022-07-26T19:07:51.291Z,2.40
2022-07-26T19:10:28.680Z,2.55
2022-07-26T19:12:55.956Z,2.60
2022-07-26T19:15:23.690Z,2.80
2022-07-26T19:17:51.012Z,3.13
2022-07-26T19:20:18.335Z,2.55
2022-07-26T19:22:47.665Z,2.80
2022-07-26T19:25:16.729Z,2.65
2022-07-26T19:27:44.225Z,2.65
2022-07-26T19:32:39.939Z,2.80
2022-07-26T19:35:08.127Z,2.58
2022-07-26T19:37:35.690Z,2.30
2022-07-26T19:42:32.518Z,2.60
2022-07-26T19:45:00.675Z,2.58
2022-07-26T19:47:30.116Z,2.88
2022-07-26T19:49:57.985Z,2.22
2022-07-26T19:52:25.654Z,2.35
2022-07-26T19:54:53.200Z,2.42
2022-07-26T20:02:16.379Z,2.70
2022-07-26T20:04:46.262Z,2.45
2022-07-26T20:07:21.648Z,2.40
2022-07-26T20:09:50.427Z,2.60
2022-07-26T20:12:18.779Z,2.58
2022-07-26T20:14:46.443Z,2.72
2022-07-26T20:17:14.951Z,2.35
2022-07-26T20:27:08.613Z,2.33
2022-07-26T20:29:36.575Z,2.90
2022-07-26T20:32:04.225Z,2.40
2022-07-26T20:34:31.608Z,2.33
2022-07-26T20:36:58.955Z,2.15
2022-07-26T20:39:28.213Z,2.17
2022-07-26T20:41:55.695Z,2.20
2022-07-26T20:44:28.213Z,3.33
2022-07-26T20:46:56.049Z,2.28
2022-07-26T20:49:23.843Z,2.47
2022-07-26T20:51:51.680Z,2.00
2022-07-26T20:54:19.965Z,2.38
2022-07-26T20:56:47.452Z,2.20
2022-07-26T20:59:14.942Z,2.67
2022-07-26T21:01:44.120Z,2.55
2022-07-26T21:04:12.389Z,2.65
2022-07-26T21:06:40.421Z,2.13
2022-07-26T21:09:09.737Z,2.47
2022-07-26T21:11:38.311Z,2.72
2022-07-26T21:14:20.354Z,2.78
2022-07-26T21:16:50.787Z,2.25
2022-07-26T21:19:18.052Z,2.17
2022-07-26T21:21:47.533Z,2.45
2022-07-26T21:24:14.985Z,2.03
2022-07-26T21:26:42.290Z,2.60
2022-07-26T21:29:13.167Z,2.80
2022-07-26T21:31:40.791Z,2.28
2022-07-26T21:34:08.091Z,2.72
2022-07-26T21:36:39.259Z,1.83
2022-07-26T21:39:07.820Z,2.10
2022-07-26T21:41:35.934Z,2.10
2022-07-26T21:44:04.215Z,2.15
2022-07-26T21:46:31.982Z,1.85
2022-07-26T21:51:43.320Z,1.90
2022-07-26T21:54:10.549Z,2.03
2022-07-26T21:56:41.088Z,2.58
2022-07-26T21:59:11.350Z,2.10
2022-07-26T22:01:41.654Z,2.58
2022-07-26T22:04:10.656Z,2.22
2022-07-26T22:06:41.202Z,1.88
2022-07-26T22:09:08.699Z,2.10
2022-07-26T22:11:39.875Z,2.00
2022-07-26T22:14:08.846Z,2.20
2022-07-26T22:16:36.636Z,2.22
2022-07-26T22:19:03.970Z,2.13
2022-07-26T22:21:31.406Z,2.65
2022-07-26T22:23:58.767Z,2.10
2022-07-26T22:26:31.399Z,2.85
2022-07-26T22:29:00.110Z,2.30
2022-07-26T22:31:27.485Z,2.13
2022-07-26T22:33:54.846Z,2.30
2022-07-26T22:36:22.081Z,1.88
2022-07-26T22:38:49.345Z,2.20
2022-07-26T22:41:16.634Z,1.90
2022-07-26T22:43:46.448Z,2.00
2022-07-26T22:46:13.846Z,1.92
2022-07-26T22:48:44.541Z,2.15
2022-07-26T22:51:15.378Z,2.65
2022-07-26T22:53:42.557Z,2.60
2022-07-26T22:56:10.122Z,2.33
2022-07-26T22:58:38.779Z,2.50
2022-07-26T23:01:06.233Z,1.70
2022-07-26T23:06:03.706Z,1.77
2022-07-26T23:08:46.990Z,1.70
2022-07-26T23:11:14.842Z,1.80
2022-07-26T23:13:42.192Z,1.95
2022-07-26T23:16:09.647Z,2.10
2022-07-26T23:18:37.028Z,2.20
2022-07-26T23:21:04.560Z,2.05
2022-07-26T23:23:32.043Z,2.20
2022-07-26T23:26:00.533Z,2.00
2022-07-26T23:28:37.293Z,1.88
2022-07-26T23:31:11.235Z,2.03
2022-07-26T23:33:53.490Z,1.58
2022-07-26T23:36:26.685Z,1.58
2022-07-26T23:38:55.881Z,1.88
2022-07-26T23:41:23.788Z,2.08
2022-07-26T23:43:51.618Z,1.75
2022-07-26T23:46:19.121Z,1.45
2022-07-26T23:48:46.763Z,1.70
2022-07-26T23:51:14.389Z,1.73
2022-07-26T23:53:41.638Z,1.80
2022-07-26T23:56:08.972Z,1.95
2022-07-26T23:58:36.198Z,1.98
